createdAt,value
2023-05-09T00:00:33.188Z,14.70
2023-05-09T00:03:00.182Z,14.70
2023-05-09T00:05:27.200Z,14.70
2023-05-09T00:07:54.026Z,14.70
2023-05-09T00:10:21.014Z,14.60
2023-05-09T00:12:49.466Z,14.60
2023-05-09T00:15:16.620Z,14.60
2023-05-09T00:17:44.756Z,14.60
2023-05-09T00:20:12.791Z,14.50
2023-05-09T00:22:41.125Z,14.50
2023-05-09T00:25:09.410Z,14.50
2023-05-09T00:27:36.247Z,14.50
2023-05-09T00:30:05.069Z,14.50
2023-05-09T00:32:33.287Z,14.40
2023-05-09T00:35:00.275Z,14.40
2023-05-09T00:37:27.129Z,14.40
2023-05-09T00:39:53.961Z,14.30
2023-05-09T00:42:20.913Z,14.30
2023-05-09T00:44:47.768Z,14.30
2023-05-09T00:47:14.599Z,14.30
2023-05-09T00:49:41.492Z,14.20
2023-05-09T00:52:08.363Z,14.20
2023-05-09T00:54:35.238Z,14.10
2023-05-09T00:57:02.321Z,14.10
2023-05-09T00:59:29.295Z,14.10
2023-05-09T01:01:56.176Z,14.00
2023-05-09T01:04:23.086Z,14.00
2023-05-09T01:07:02.445Z,14.00
2023-05-09T01:09:46.184Z,14.00
2023-05-09T01:12:31.221Z,14.00
2023-05-09T01:15:19.150Z,13.90
2023-05-09T01:17:53.813Z,13.90
2023-05-09T01:20:51.976Z,13.90
2023-05-09T01:23:40.341Z,13.80
2023-05-09T01:26:19.747Z,13.80
2023-05-09T01:29:06.378Z,13.80
2023-05-09T01:31:38.267Z,13.80
2023-05-09T01:34:07.460Z,13.80
2023-05-09T01:36:37.293Z,13.80
2023-05-09T01:39:05.920Z,13.80
2023-05-09T01:41:37.017Z,13.70
2023-05-09T01:44:06.902Z,13.70
2023-05-09T01:46:35.409Z,13.70
2023-05-09T01:49:03.690Z,13.70
2023-05-09T01:51:32.063Z,13.80
2023-05-09T01:54:00.395Z,13.70
2023-05-09T01:56:28.020Z,13.80
2023-05-09T01:58:57.574Z,13.80
2023-05-09T02:01:24.922Z,13.80
2023-05-09T02:03:53.210Z,13.70
2023-05-09T02:06:23.275Z,13.70
2023-05-09T02:08:50.960Z,13.70
2023-05-09T02:11:17.885Z,13.70
2023-05-09T02:13:44.767Z,13.70
2023-05-09T02:16:12.293Z,13.70
2023-05-09T02:18:44.936Z,13.70
2023-05-09T02:21:12.195Z,13.70
2023-05-09T02:23:39.116Z,13.70
2023-05-09T02:26:06.647Z,13.70
2023-05-09T02:28:34.311Z,13.70
2023-05-09T02:31:04.592Z,13.70
2023-05-09T02:33:33.000Z,13.60
2023-05-09T02:36:00.853Z,13.60
2023-05-09T02:38:27.802Z,13.70
2023-05-09T02:40:57.966Z,13.70
2023-05-09T02:43:24.933Z,13.60
2023-05-09T02:45:51.955Z,13.60
2023-05-09T02:48:18.797Z,13.70
2023-05-09T02:50:45.983Z,13.60
2023-05-09T02:53:12.821Z,13.70
2023-05-09T02:55:39.693Z,13.60
2023-05-09T02:58:14.352Z,13.70
2023-05-09T03:00:42.189Z,13.70
2023-05-09T03:03:09.429Z,13.70
2023-05-09T03:05:36.514Z,13.70
2023-05-09T03:08:03.515Z,13.70
2023-05-09T03:10:30.353Z,13.70
2023-05-09T03:12:57.296Z,13.70
2023-05-09T03:15:24.179Z,13.70
2023-05-09T03:17:51.124Z,13.70
2023-05-09T03:20:18.210Z,13.60
2023-05-09T03:22:45.050Z,13.60
2023-05-09T03:25:11.978Z,13.70
2023-05-09T03:27:38.851Z,13.60
2023-05-09T03:30:07.020Z,13.60
2023-05-09T03:32:34.010Z,13.60
2023-05-09T03:35:00.825Z,13.60
2023-05-09T03:37:27.706Z,13.60
2023-05-09T03:39:54.531Z,13.60
2023-05-09T03:42:22.286Z,13.60
2023-05-09T03:44:49.117Z,13.60
2023-05-09T03:47:15.924Z,13.60
2023-05-09T03:49:42.753Z,13.60
2023-05-09T03:52:09.620Z,13.60
2023-05-09T03:54:36.447Z,13.60
2023-05-09T03:57:03.547Z,13.60
2023-05-09T03:59:30.484Z,13.60
2023-05-09T04:01:57.972Z,13.70
2023-05-09T04:04:24.988Z,13.60
2023-05-09T04:06:51.858Z,13.60
2023-05-09T04:09:19.342Z,13.70
2023-05-09T04:11:46.679Z,13.70
2023-05-09T04:14:13.514Z,13.70
2023-05-09T04:16:40.419Z,13.70
2023-05-09T04:19:07.329Z,13.70
2023-05-09T04:21:34.313Z,13.70
2023-05-09T04:24:01.260Z,13.70
2023-05-09T04:26:28.216Z,13.70
2023-05-09T04:28:55.058Z,13.70
2023-05-09T04:31:23.184Z,13.80
2023-05-09T04:33:50.230Z,13.80
2023-05-09T04:36:17.156Z,13.80
2023-05-09T04:38:44.131Z,13.80
2023-05-09T04:41:11.085Z,13.90
2023-05-09T04:43:37.941Z,13.80
2023-05-09T04:46:04.812Z,13.90
2023-05-09T04:48:31.682Z,13.90
2023-05-09T04:50:58.599Z,13.90
2023-05-09T04:53:26.044Z,14.00
2023-05-09T04:55:53.541Z,14.00
2023-05-09T04:58:20.689Z,14.10
2023-05-09T05:00:47.560Z,14.10
2023-05-09T05:03:14.393Z,14.20
2023-05-09T05:05:41.696Z,14.20
2023-05-09T05:08:08.572Z,14.30
2023-05-09T05:10:35.608Z,14.40
2023-05-09T05:13:02.751Z,14.40
2023-05-09T05:15:29.616Z,14.50
2023-05-09T05:17:56.638Z,14.50
2023-05-09T05:20:23.614Z,14.60
2023-05-09T05:22:50.623Z,14.60
2023-05-09T05:25:18.913Z,14.70
2023-05-09T05:27:46.191Z,14.80
2023-05-09T05:30:15.568Z,14.80
2023-05-09T05:32:43.646Z,14.90
2023-05-09T05:35:14.121Z,14.90
2023-05-09T05:37:41.797Z,15.00
2023-05-09T05:40:09.273Z,14.90
2023-05-09T05:42:36.305Z,14.90
2023-05-09T05:45:05.885Z,15.00
2023-05-09T05:47:33.747Z,15.00
2023-05-09T05:50:02.458Z,14.90
2023-05-09T05:52:29.706Z,14.90
2023-05-09T05:54:56.638Z,14.90
2023-05-09T05:57:23.421Z,14.90
2023-05-09T05:59:51.275Z,14.90
2023-05-09T06:02:18.550Z,14.90
2023-05-09T06:04:45.408Z,14.90
2023-05-09T06:07:13.908Z,14.90
2023-05-09T06:09:40.879Z,14.90
2023-05-09T06:12:07.888Z,14.90
2023-05-09T06:14:34.725Z,14.90
2023-05-09T06:17:01.754Z,14.90
2023-05-09T06:19:28.812Z,14.90
2023-05-09T06:21:55.720Z,15.00
2023-05-09T06:24:34.408Z,14.90
2023-05-09T06:27:02.538Z,15.00
2023-05-09T06:29:29.443Z,15.00
2023-05-09T06:31:56.282Z,15.00
2023-05-09T06:34:23.139Z,15.00
2023-05-09T06:36:49.984Z,15.00
2023-05-09T06:39:16.849Z,15.00
2023-05-09T06:41:43.657Z,15.00
2023-05-09T06:44:10.562Z,15.00
2023-05-09T06:46:37.731Z,15.10
2023-05-09T06:49:06.049Z,15.10
2023-05-09T06:51:33.146Z,15.20
2023-05-09T06:54:00.017Z,15.20
2023-05-09T06:56:26.988Z,15.20
2023-05-09T06:58:54.064Z,15.20
2023-05-09T07:01:20.961Z,15.20
2023-05-09T07:03:48.505Z,15.30
2023-05-09T07:06:15.797Z,15.40
2023-05-09T07:08:43.030Z,15.40
2023-05-09T07:11:09.841Z,15.50
2023-05-09T07:13:36.807Z,15.50
2023-05-09T07:16:03.960Z,15.60
2023-05-09T07:18:31.012Z,15.50
2023-05-09T07:20:57.807Z,15.50
2023-05-09T07:23:26.309Z,15.50
2023-05-09T07:25:58.876Z,15.50
2023-05-09T07:28:26.294Z,15.50
2023-05-09T07:30:55.664Z,15.50
2023-05-09T07:33:22.713Z,15.40
2023-05-09T07:35:49.755Z,15.40
2023-05-09T07:38:16.612Z,15.40
2023-05-09T07:40:43.465Z,15.50
2023-05-09T07:43:10.310Z,15.50
2023-05-09T07:45:37.221Z,15.50
2023-05-09T07:48:04.386Z,15.60
2023-05-09T07:50:31.478Z,15.60
2023-05-09T07:52:58.405Z,15.70
2023-05-09T07:55:25.281Z,15.80
2023-05-09T07:57:52.130Z,15.80
2023-05-09T08:00:23.618Z,16.00
2023-05-09T08:02:54.244Z,16.10
2023-05-09T08:05:21.300Z,16.10
2023-05-09T08:07:48.149Z,16.20
2023-05-09T08:10:15.069Z,16.30
2023-05-09T08:12:41.946Z,16.40
2023-05-09T08:15:09.154Z,16.50
2023-05-09T08:17:36.036Z,16.60
2023-05-09T08:20:05.489Z,16.80
2023-05-09T08:22:32.374Z,16.90
2023-05-09T08:24:59.209Z,17.10
2023-05-09T08:27:26.322Z,17.50
2023-05-09T08:29:53.317Z,17.70
2023-05-09T08:32:20.278Z,17.90
2023-05-09T08:34:47.096Z,18.10
2023-05-09T08:37:15.277Z,18.10
2023-05-09T08:39:43.098Z,18.00
2023-05-09T08:42:10.507Z,17.90
2023-05-09T08:44:37.300Z,17.80
2023-05-09T08:47:05.180Z,17.70
2023-05-09T08:49:33.368Z,17.70
2023-05-09T08:52:00.560Z,17.60
2023-05-09T08:54:27.701Z,17.50
2023-05-09T08:56:54.855Z,17.50
2023-05-09T08:59:22.901Z,17.60
2023-05-09T09:01:50.186Z,17.60
2023-05-09T09:04:17.254Z,17.70
2023-05-09T09:06:44.399Z,17.70
2023-05-09T09:09:12.946Z,17.80
2023-05-09T09:11:40.797Z,17.70
2023-05-09T09:14:13.868Z,17.70
2023-05-09T09:16:43.720Z,17.60
2023-05-09T09:19:13.184Z,17.50
2023-05-09T09:21:43.362Z,17.40
2023-05-09T09:24:14.657Z,17.30
2023-05-09T09:26:51.907Z,17.30
2023-05-09T09:29:21.282Z,17.40
2023-05-09T09:31:53.280Z,17.60
2023-05-09T09:34:22.925Z,17.70
2023-05-09T09:36:50.790Z,17.90
2023-05-09T09:39:17.930Z,18.00
2023-05-09T09:41:45.234Z,18.10
2023-05-09T09:44:17.005Z,18.10
2023-05-09T09:46:51.168Z,18.20
2023-05-09T09:49:20.413Z,18.30
2023-05-09T09:51:54.375Z,18.20
2023-05-09T09:54:21.778Z,18.20
2023-05-09T09:56:53.358Z,18.10
2023-05-09T09:59:25.666Z,18.10
2023-05-09T10:02:08.398Z,18.20
2023-05-09T10:04:38.747Z,18.50
2023-05-09T10:07:07.768Z,18.60
2023-05-09T10:09:35.864Z,18.70
2023-05-09T10:12:04.878Z,18.70
2023-05-09T10:14:35.008Z,18.70
2023-05-09T10:17:03.716Z,18.60
2023-05-09T10:19:31.958Z,18.60
2023-05-09T10:22:11.857Z,18.70
2023-05-09T10:25:05.709Z,18.70
2023-05-09T10:27:36.674Z,18.70
2023-05-09T10:30:08.825Z,18.90
2023-05-09T10:33:09.258Z,19.10
2023-05-09T10:35:47.113Z,19.30
2023-05-09T10:38:20.421Z,19.60
2023-05-09T10:40:48.162Z,20.00
2023-05-09T10:43:15.327Z,20.30
2023-05-09T10:45:42.585Z,20.50
2023-05-09T10:48:10.043Z,20.60
2023-05-09T10:50:40.469Z,20.60
2023-05-09T10:53:21.684Z,20.60
2023-05-09T10:55:55.372Z,20.80
2023-05-09T10:58:33.748Z,21.30
2023-05-09T11:01:03.694Z,21.60
2023-05-09T11:03:54.970Z,21.80
2023-05-09T11:06:51.271Z,21.90
2023-05-09T11:09:34.969Z,21.80
2023-05-09T11:12:01.850Z,21.70
2023-05-09T11:14:35.717Z,21.80
2023-05-09T11:17:05.064Z,22.20
2023-05-09T11:19:48.107Z,22.50
2023-05-09T11:22:30.797Z,22.80
2023-05-09T11:25:07.789Z,23.10
2023-05-09T11:27:40.826Z,23.40
2023-05-09T11:30:09.170Z,23.40
2023-05-09T11:32:43.893Z,23.50
2023-05-09T11:35:15.549Z,23.50
2023-05-09T11:37:48.228Z,23.50
2023-05-09T11:40:17.683Z,23.20
2023-05-09T11:42:50.029Z,22.70
2023-05-09T11:45:19.810Z,22.20
2023-05-09T11:47:48.118Z,21.60
2023-05-09T11:50:47.695Z,21.20
2023-05-09T11:53:17.702Z,20.70
2023-05-09T11:55:44.612Z,20.40
2023-05-09T11:58:11.814Z,20.20
2023-05-09T12:00:47.081Z,20.10
2023-05-09T12:03:14.309Z,19.90
2023-05-09T12:05:42.675Z,19.70
2023-05-09T12:08:09.809Z,19.60
2023-05-09T12:10:40.196Z,19.40
2023-05-09T12:13:07.283Z,19.10
2023-05-09T12:15:38.034Z,18.90
2023-05-09T12:18:06.909Z,18.60
2023-05-09T12:20:50.234Z,18.40
2023-05-09T12:23:17.476Z,18.20
2023-05-09T12:25:57.287Z,18.10
2023-05-09T12:28:25.696Z,18.10
2023-05-09T12:30:53.661Z,18.10
2023-05-09T12:33:21.720Z,18.00
2023-05-09T12:36:00.635Z,18.10
2023-05-09T12:38:27.514Z,18.20
2023-05-09T12:41:18.173Z,18.30
2023-05-09T12:43:56.026Z,18.40
2023-05-09T12:46:23.058Z,18.50
2023-05-09T12:48:50.235Z,18.60
2023-05-09T12:51:21.659Z,18.70
2023-05-09T12:53:49.170Z,19.00
2023-05-09T12:56:18.739Z,19.10
2023-05-09T12:58:53.396Z,19.20
2023-05-09T13:01:27.466Z,19.30
2023-05-09T13:04:04.244Z,19.30
2023-05-09T13:06:31.682Z,19.30
2023-05-09T13:09:05.468Z,19.30
2023-05-09T13:11:32.363Z,19.40
2023-05-09T13:13:59.346Z,19.40
2023-05-09T13:16:26.253Z,19.50
2023-05-09T13:18:53.108Z,19.50
2023-05-09T13:21:20.194Z,19.50
2023-05-09T13:23:49.429Z,19.50
2023-05-09T13:26:16.340Z,19.50
2023-05-09T13:28:44.469Z,19.60
2023-05-09T13:31:11.355Z,19.60
2023-05-09T13:33:38.583Z,19.70
2023-05-09T13:36:06.623Z,19.70
2023-05-09T13:38:37.340Z,19.60
2023-05-09T13:41:04.625Z,19.60
2023-05-09T13:43:31.476Z,19.50
2023-05-09T13:45:58.447Z,19.40
2023-05-09T13:48:25.341Z,19.20
2023-05-09T13:50:52.326Z,18.90
2023-05-09T13:53:20.145Z,18.70
2023-05-09T13:55:47.211Z,18.40
2023-05-09T13:58:14.413Z,18.10
2023-05-09T14:00:43.718Z,17.90
2023-05-09T14:03:10.527Z,17.60
2023-05-09T14:05:37.407Z,17.50
2023-05-09T14:08:04.487Z,17.40
2023-05-09T14:10:31.315Z,17.30
2023-05-09T14:12:58.727Z,17.30
2023-05-09T14:15:26.005Z,17.30
2023-05-09T14:17:52.916Z,17.30
2023-05-09T14:20:20.904Z,17.30
2023-05-09T14:22:48.487Z,17.40
2023-05-09T14:25:15.489Z,17.40
2023-05-09T14:27:42.352Z,17.50
2023-05-09T14:30:09.700Z,17.60
2023-05-09T14:32:36.615Z,17.60
2023-05-09T14:35:03.927Z,17.70
2023-05-09T14:37:30.879Z,17.70
2023-05-09T14:39:57.781Z,17.80
2023-05-09T14:42:24.749Z,17.90
2023-05-09T14:44:51.681Z,17.90
2023-05-09T14:47:18.540Z,17.90
2023-05-09T14:49:45.593Z,17.90
2023-05-09T14:52:13.765Z,17.90
2023-05-09T14:54:41.253Z,17.80
2023-05-09T14:57:08.396Z,17.90
2023-05-09T14:59:37.109Z,18.00
2023-05-09T15:02:04.297Z,18.10
2023-05-09T15:04:31.483Z,18.10
2023-05-09T15:06:59.251Z,18.10
2023-05-09T15:09:26.903Z,18.20
2023-05-09T15:11:54.914Z,18.20
2023-05-09T15:14:22.019Z,18.20
2023-05-09T15:16:51.521Z,18.20
2023-05-09T15:19:18.754Z,18.20
2023-05-09T15:21:45.590Z,18.20
2023-05-09T15:24:12.750Z,18.20
2023-05-09T15:26:39.723Z,18.20
2023-05-09T15:29:07.090Z,18.10
2023-05-09T15:31:36.531Z,18.10
2023-05-09T15:34:03.654Z,18.10
2023-05-09T15:36:30.525Z,18.10
2023-05-09T15:38:57.369Z,18.00
2023-05-09T15:41:24.425Z,17.90
2023-05-09T15:43:52.296Z,17.70
2023-05-09T15:46:19.537Z,17.60
2023-05-09T15:48:46.394Z,17.50
2023-05-09T15:51:13.982Z,17.30
2023-05-09T15:53:41.030Z,17.20
2023-05-09T15:56:08.847Z,17.00
2023-05-09T15:58:36.106Z,16.90
2023-05-09T16:06:28.683Z,16.50
2023-05-09T16:08:55.568Z,16.50
2023-05-09T16:11:22.672Z,16.40
2023-05-09T16:13:49.550Z,16.30
2023-05-09T16:16:16.746Z,16.20
2023-05-09T16:18:43.625Z,16.10
2023-05-09T16:21:10.592Z,16.00
2023-05-09T16:23:39.530Z,16.00
2023-05-09T16:26:09.427Z,15.90
2023-05-09T16:28:36.419Z,15.80
2023-05-09T16:31:08.116Z,15.80
2023-05-09T16:33:35.221Z,15.80
2023-05-09T16:36:02.108Z,15.70
2023-05-09T16:38:29.083Z,15.70
2023-05-09T16:40:56.375Z,15.70
2023-05-09T16:43:23.308Z,15.70
2023-05-09T16:45:50.305Z,15.60
2023-05-09T16:48:18.645Z,15.60
2023-05-09T16:50:46.255Z,15.60
2023-05-09T16:53:13.102Z,15.60
2023-05-09T16:55:40.090Z,15.60
2023-05-09T16:58:07.636Z,15.60
2023-05-09T17:00:34.645Z,15.60
2023-05-09T17:03:01.701Z,15.60
2023-05-09T17:05:28.812Z,15.60
2023-05-09T17:07:55.684Z,15.50
2023-05-09T17:10:22.770Z,15.50
2023-05-09T17:12:50.431Z,15.50
2023-05-09T17:15:17.633Z,15.50
2023-05-09T17:17:47.343Z,15.50
2023-05-09T17:20:14.566Z,15.40
2023-05-09T17:22:41.637Z,15.50
2023-05-09T17:25:09.188Z,15.40
2023-05-09T17:27:36.153Z,15.50
2023-05-09T17:30:03.352Z,15.50
2023-05-09T17:32:30.373Z,15.50
2023-05-09T17:34:57.353Z,15.50
2023-05-09T17:37:24.313Z,15.40
2023-05-09T17:39:52.034Z,15.40
2023-05-09T17:42:18.911Z,15.40
2023-05-09T17:44:46.236Z,15.40
2023-05-09T17:47:14.306Z,15.30
2023-05-09T17:49:41.493Z,15.30
2023-05-09T17:52:08.654Z,15.30
2023-05-09T17:54:37.379Z,15.30
2023-05-09T17:57:04.487Z,15.20
2023-05-09T17:59:31.316Z,15.10
2023-05-09T18:01:58.229Z,15.00
2023-05-09T18:04:25.960Z,15.00
2023-05-09T18:06:53.331Z,14.90
2023-05-09T18:09:20.235Z,14.90
2023-05-09T18:11:47.212Z,14.80
2023-05-09T18:14:14.115Z,14.80
2023-05-09T18:16:41.340Z,14.70
2023-05-09T18:19:08.292Z,14.70
2023-05-09T18:21:35.420Z,14.70
2023-05-09T18:24:02.465Z,14.60
2023-05-09T18:26:29.625Z,14.60
2023-05-09T18:28:56.774Z,14.60
2023-05-09T18:31:23.832Z,14.50
2023-05-09T18:33:51.185Z,14.50
2023-05-09T18:36:19.194Z,14.50
2023-05-09T18:38:47.748Z,14.50
2023-05-09T18:41:15.836Z,14.50
2023-05-09T18:43:46.103Z,14.50
2023-05-09T18:46:17.713Z,14.50
2023-05-09T18:48:46.444Z,14.50
2023-05-09T18:51:13.400Z,14.40
2023-05-09T18:53:40.511Z,14.40
2023-05-09T18:56:07.736Z,14.40
2023-05-09T18:58:35.400Z,14.40
2023-05-09T19:01:02.754Z,14.40
2023-05-09T19:03:29.770Z,14.40
2023-05-09T19:05:58.066Z,14.40
2023-05-09T19:08:26.227Z,14.30
2023-05-09T19:10:53.072Z,14.30
2023-05-09T19:13:20.001Z,14.30
2023-05-09T19:15:47.789Z,14.20
2023-05-09T19:18:14.768Z,14.20
2023-05-09T19:20:46.505Z,14.20
2023-05-09T19:23:13.378Z,14.20
2023-05-09T19:25:40.183Z,14.10
2023-05-09T19:28:07.023Z,14.10
2023-05-09T19:30:34.411Z,14.00
2023-05-09T19:33:01.396Z,14.00
2023-05-09T19:35:28.285Z,14.00
2023-05-09T19:37:55.275Z,14.00
2023-05-09T19:40:22.225Z,14.00
2023-05-09T19:42:49.111Z,14.00
2023-05-09T19:45:16.250Z,13.90
2023-05-09T19:47:43.665Z,13.90
2023-05-09T19:50:11.136Z,13.90
2023-05-09T19:52:37.932Z,14.00
2023-05-09T19:55:06.093Z,13.90
2023-05-09T19:57:33.206Z,13.90
2023-05-09T20:00:00.091Z,13.90
2023-05-09T20:02:29.475Z,13.80
2023-05-09T20:04:56.419Z,13.90
2023-05-09T20:07:23.945Z,13.80
2023-05-09T20:09:51.126Z,13.90
2023-05-09T20:12:18.085Z,13.80
2023-05-09T20:14:44.991Z,13.80
2023-05-09T20:17:11.791Z,13.80
2023-05-09T20:19:38.645Z,13.70
2023-05-09T20:22:06.601Z,13.70
2023-05-09T20:24:33.452Z,13.80
2023-05-09T20:27:02.255Z,13.70
2023-05-09T20:29:29.204Z,13.70
2023-05-09T20:31:56.185Z,13.70
2023-05-09T20:34:24.602Z,13.70
2023-05-09T20:36:53.791Z,13.70
2023-05-09T20:39:21.123Z,13.60
2023-05-09T20:41:49.434Z,13.70
2023-05-09T20:44:17.780Z,13.70
2023-05-09T20:46:45.390Z,13.70
2023-05-09T20:49:12.684Z,13.70
2023-05-09T20:51:39.644Z,13.70
2023-05-09T20:54:06.718Z,13.70
2023-05-09T20:56:35.517Z,13.70
2023-05-09T20:59:04.074Z,13.70
2023-05-09T21:01:34.295Z,13.70
2023-05-09T21:04:01.339Z,13.70
2023-05-09T21:06:28.241Z,13.70
2023-05-09T21:08:55.175Z,13.70
2023-05-09T21:11:22.371Z,13.70
2023-05-09T21:13:49.298Z,13.70
2023-05-09T21:16:16.162Z,13.70
2023-05-09T21:18:43.032Z,13.70
2023-05-09T21:21:10.061Z,13.70
2023-05-09T21:23:37.173Z,13.70
2023-05-09T21:26:04.187Z,13.60
2023-05-09T21:28:31.495Z,13.60
2023-05-09T21:31:00.741Z,13.60
2023-05-09T21:33:28.015Z,13.60
2023-05-09T21:35:54.952Z,13.60
2023-05-09T21:38:21.787Z,13.60
2023-05-09T21:40:51.537Z,13.70
2023-05-09T21:43:18.486Z,13.70
2023-05-09T21:45:45.988Z,13.60
2023-05-09T21:48:13.255Z,13.60
2023-05-09T21:50:40.189Z,13.70
2023-05-09T21:53:07.051Z,13.60
2023-05-09T21:55:33.845Z,13.60
2023-05-09T21:58:01.042Z,13.70
2023-05-09T22:00:27.862Z,13.60
2023-05-09T22:02:54.816Z,13.60
2023-05-09T22:05:23.265Z,13.60
2023-05-09T22:07:51.154Z,13.60
2023-05-09T22:10:18.370Z,13.60
2023-05-09T22:12:45.860Z,13.70
2023-05-09T22:15:13.119Z,13.70
2023-05-09T22:17:40.047Z,13.60
2023-05-09T22:20:07.438Z,13.70
2023-05-09T22:22:34.401Z,13.60
2023-05-09T22:25:01.217Z,13.60
2023-05-09T22:27:28.129Z,13.60
2023-05-09T22:29:55.479Z,13.60
2023-05-09T22:32:22.429Z,13.60
2023-05-09T22:34:49.291Z,13.60
2023-05-09T22:37:16.232Z,13.60
2023-05-09T22:39:43.086Z,13.60
2023-05-09T22:42:11.303Z,13.60
2023-05-09T22:44:39.178Z,13.60
2023-05-09T22:47:09.811Z,13.60
2023-05-09T22:49:36.688Z,13.50
2023-05-09T22:52:03.708Z,13.50
2023-05-09T22:54:30.593Z,13.60
2023-05-09T22:56:57.427Z,13.60
2023-05-09T22:59:24.324Z,13.60
2023-05-09T23:01:51.854Z,13.60
2023-05-09T23:04:18.678Z,13.60
2023-05-09T23:06:45.631Z,13.60
2023-05-09T23:09:12.813Z,13.50
2023-05-09T23:11:39.948Z,13.50
2023-05-09T23:14:07.377Z,13.50
2023-05-09T23:16:34.364Z,13.50
2023-05-09T23:19:01.128Z,13.50
2023-05-09T23:21:29.134Z,13.50
2023-05-09T23:23:56.202Z,13.50
2023-05-09T23:26:23.059Z,13.50
2023-05-09T23:28:49.932Z,13.50
2023-05-09T23:31:16.898Z,13.50
2023-05-09T23:33:43.987Z,13.50
2023-05-09T23:36:10.882Z,13.60
2023-05-09T23:38:37.709Z,13.50
2023-05-09T23:41:04.537Z,13.50
2023-05-09T23:43:31.360Z,13.50
2023-05-09T23:45:58.219Z,13.50
2023-05-09T23:48:25.807Z,13.50
2023-05-09T23:50:52.637Z,13.60
2023-05-09T23:53:19.553Z,13.60
2023-05-09T23:55:46.390Z,13.60
2023-05-09T23:58:13.215Z,13.60
